Time;durP1;ratioP1;P1;durP2;ratioP2;P2;SDS_P1;SDS_P2;PMS_P1;PMS_P2;Temp;Humidity;BMP_temperature;BMP_pressure;BME280_temperature;BME280_humidity;BME280_pressure;Samples;Min_cycle;Max_cycle;Signal;HPM_P1;HPM_P2
2023/10/24 00:02:08;;;;;;;;;;;12.80;99.90;;;;;;4911334;29;19964;-77
2023/10/24 00:04:33;;;;;;;;;;;12.80;99.90;;;;;;4931962;28;19950;-78
2023/10/24 00:07:05;;;;;;;;;;;12.80;99.90;;;;;;4982758;28;20155;-77
2023/10/24 00:09:49;;;;;;;;;;;12.80;99.90;;;;;;5020181;28;19928;-78
2023/10/24 00:12:54;;;;;;;;;;;12.80;99.90;;;;;;5002572;28;19914;-77
2023/10/24 00:15:19;;;;;;;;;;;12.80;99.90;;;;;;5020725;28;19910;-77
2023/10/24 00:17:45;;;;;;;;;;;12.80;99.90;;;;;;5020198;28;20196;-78
2023/10/24 00:20:11;;;;;;;;;;;12.70;99.90;;;;;;5004243;28;19909;-76
2023/10/24 00:22:42;;;;;;;;;;;12.70;99.90;;;;;;5026442;28;19913;-77
2023/10/24 00:25:08;;;;;;;;;;;12.60;99.90;;;;;;4990880;28;19914;-76
2023/10/24 00:27:34;;;;;;;;;;;12.60;99.90;;;;;;5006957;28;19981;-78
2023/10/24 00:29:59;;;;;;;;;;;12.50;99.90;;;;;;5024729;28;19945;-77
2023/10/24 06:36:11;;;;;;;;;;;12.20;99.90;;;;;;5471317;23;19923;-76
2023/10/24 06:39:05;;;;;;;;;;;12.20;99.90;;;;;;4928713;29;19949;-78
2023/10/24 06:41:34;;;;;;;;;;;12.30;99.90;;;;;;4926195;29;19915;-76
2023/10/24 06:44:00;;;;;;;;;;;12.20;99.90;;;;;;4937002;29;19946;-77
2023/10/24 06:46:41;;;;;;;;;;;12.20;99.90;;;;;;4948951;29;19910;-77
2023/10/24 06:49:09;;;;;;;;;;;12.30;99.90;;;;;;4931359;29;19939;-75
2023/10/24 06:55:04;;;;;;;;;;;12.30;99.90;;;;;;4934062;29;19911;-77
2023/10/24 06:57:34;;;;;;;;;;;12.30;99.90;;;;;;4948707;29;19930;-76
2023/10/24 07:03:57;;;;;;;;;;;12.40;99.90;;;;;;4908377;29;19922;-77
2023/10/24 07:06:23;;;;;;;;;;;12.40;99.90;;;;;;4893448;29;19911;-77
2023/10/24 07:08:48;;;;;;;;;;;12.40;99.90;;;;;;4892775;29;20007;-76
2023/10/24 07:11:26;;;;;;;;;;;12.40;99.90;;;;;;4893552;29;20106;-76
2023/10/24 07:13:54;;;;;;;;;;;12.50;99.90;;;;;;4876831;29;19912;-76
2023/10/24 07:16:44;;;;;;;;;;;12.50;99.90;;;;;;4878398;29;19982;-76
2023/10/24 07:19:10;;;;;;;;;;;12.60;99.90;;;;;;4892393;29;19930;-76
2023/10/24 07:21:36;;;;;;;;;;;12.60;99.90;;;;;;4893212;29;19919;-75
2023/10/24 07:24:04;;;;;;;;;;;12.60;99.90;;;;;;4892604;29;20141;-75
2023/10/24 07:26:33;;;;;;;;;;;12.60;99.90;;;;;;4892654;29;19911;-76
2023/10/24 07:28:58;;;;;;;;;;;12.60;99.90;;;;;;4907696;29;19911;-77
2023/10/24 07:31:24;;;;;;;;;;;12.60;99.90;;;;;;4892501;29;20030;-76
2023/10/24 07:37:00;;;;;;;;;;;12.60;99.90;;;;;;4928273;29;19921;-76
2023/10/24 07:39:26;;;;;;;;;;;12.60;99.90;;;;;;4928701;29;20161;-76
2023/10/24 07:42:08;;;;;;;;;;;12.60;99.90;;;;;;4928519;29;19948;-76
2023/10/24 07:44:34;;;;;;;;;;;12.60;99.90;;;;;;4910182;29;19987;-75
2023/10/24 07:47:03;;;;;;;;;;;12.60;99.90;;;;;;4930126;29;20184;-76
2023/10/24 07:49:28;;;;;;;;;;;12.60;99.90;;;;;;4935601;29;19907;-76
2023/10/24 07:51:54;;;;;;;;;;;12.60;99.90;;;;;;4930258;29;19910;-75
2023/10/24 07:54:23;;;;;;;;;;;12.70;99.90;;;;;;4930050;29;19911;-76
2023/10/24 07:56:51;;;;;;;;;;;12.70;99.90;;;;;;4946892;29;19945;-76
2023/10/24 07:59:23;;;;;;;;;;;12.80;99.90;;;;;;4946612;29;20136;-76
2023/10/24 08:02:04;;;;;;;;;;;12.90;99.90;;;;;;4947660;29;20220;-75
2023/10/24 08:04:42;;;;;;;;;;;12.80;99.90;;;;;;4946160;29;19990;-76
2023/10/24 08:08:06;;;;;;;;;;;12.80;99.90;;;;;;4949765;29;19952;-74
2023/10/24 08:10:44;;;;;;;;;;;12.70;99.90;;;;;;4852103;29;19942;-74
2023/10/24 08:13:41;;;;;;;;;;;12.80;99.90;;;;;;4834532;29;19991;-75
2023/10/24 08:16:07;;;;;;;;;;;12.80;99.90;;;;;;4851470;29;19919;-74
2023/10/24 08:18:58;;;;;;;;;;;12.70;99.90;;;;;;4851672;29;19912;-74
2023/10/24 08:21:52;;;;;;;;;;;12.70;99.90;;;;;;4797078;30;19996;-74
2023/10/24 08:24:23;;;;;;;;;;;12.70;99.90;;;;;;4798841;29;19914;-74
2023/10/24 08:27:04;;;;;;;;;;;12.70;99.90;;;;;;4814824;29;19941;-76
2023/10/24 08:29:32;;;;;;;;;;;12.70;99.90;;;;;;4799817;29;19973;-76
2023/10/24 08:32:04;;;;;;;;;;;12.70;99.90;;;;;;4799718;29;20245;-74
2023/10/24 08:34:30;;;;;;;;;;;12.80;99.90;;;;;;4799676;29;19962;-75
2023/10/24 08:37:27;;;;;;;;;;;12.80;99.90;;;;;;4814239;29;19929;-73
2023/10/24 08:39:59;;;;;;;;;;;12.80;99.90;;;;;;4814289;29;19913;-74
2023/10/24 08:42:26;;;;;;;;;;;12.90;99.90;;;;;;4811102;29;19917;-75
2023/10/24 08:52:15;;;;;;;;;;;12.80;99.90;;;;;;4815036;29;19945;-75
2023/10/24 08:54:59;;;;;;;;;;;12.80;99.90;;;;;;4800020;29;19913;-75
2023/10/24 08:57:47;;;;;;;;;;;12.70;99.90;;;;;;4828640;29;20252;-75
2023/10/24 09:00:13;;;;;;;;;;;12.70;99.90;;;;;;4868954;29;19912;-75
2023/10/24 09:02:45;;;;;;;;;;;12.80;99.90;;;;;;4853781;29;19916;-75
2023/10/24 09:05:20;;;;;;;;;;;12.80;99.90;;;;;;4853247;29;19948;-75
2023/10/24 09:07:46;;;;;;;;;;;12.70;99.90;;;;;;4868303;29;19923;-75
2023/10/24 09:10:27;;;;;;;;;;;12.80;99.90;;;;;;4853239;29;19912;-75
2023/10/24 09:12:55;;;;;;;;;;;12.80;99.90;;;;;;4853735;29;19927;-74
2023/10/24 09:15:21;;;;;;;;;;;12.80;99.90;;;;;;4868625;29;19947;-75
2023/10/24 09:17:47;;;;;;;;;;;12.80;99.90;;;;;;4869723;29;19909;-75
2023/10/24 09:20:18;;;;;;;;;;;12.90;99.90;;;;;;4926768;29;19911;-77
2023/10/24 09:22:47;;;;;;;;;;;12.90;99.90;;;;;;4925892;29;19915;-76
2023/10/24 09:25:24;;;;;;;;;;;12.90;99.90;;;;;;4926371;29;20172;-75
2023/10/24 09:27:52;;;;;;;;;;;12.90;99.90;;;;;;4926970;29;19911;-76
2023/10/24 09:30:20;;;;;;;;;;;13.00;99.90;;;;;;4925193;29;20232;-78
2023/10/24 09:33:42;;;;;;;;;;;13.00;99.90;;;;;;4914696;29;19927;-76
2023/10/24 09:36:11;;;;;;;;;;;13.10;99.90;;;;;;4934241;29;19937;-76
2023/10/24 09:38:41;;;;;;;;;;;13.10;99.90;;;;;;4928763;29;19978;-75
2023/10/24 09:45:11;;;;;;;;;;;;;;;;;;;;;
2023/10/24 09:51:59;;;;;;;;;;;13.40;99.90;;;;;;4949237;29;19994;-77
2023/10/24 09:54:48;;;;;;;;;;;13.40;99.90;;;;;;4944762;29;19918;-76
2023/10/24 10:11:40;;;;;;;;;;;13.60;99.90;;;;;;4868217;29;19912;-78
2023/10/24 10:14:30;;;;;;;;;;;13.60;99.90;;;;;;4887013;29;19918;-77
2023/10/24 10:17:41;;;;;;;;;;;;;;;;;;;;;
2023/10/24 10:20:29;;;;;;;;;;;13.70;99.90;;;;;;4819680;29;19911;-77
2023/10/24 10:23:31;;;;;;;;;;;13.70;99.90;;;;;;4908052;29;20196;-77
2023/10/24 10:26:22;;;;;;;;;;;13.60;99.90;;;;;;4908778;29;20193;-77
2023/10/24 10:31:50;;;;;;;;;;;13.50;99.90;;;;;;4932080;29;20213;-75
2023/10/24 10:34:15;;;;;;;;;;;13.50;99.90;;;;;;4948780;29;19910;-75
2023/10/24 10:40:16;;;;;;;;;;;13.60;99.90;;;;;;4932026;29;19910;-78
2023/10/24 10:42:48;;;;;;;;;;;13.60;99.90;;;;;;4919013;29;19946;-78
2023/10/24 10:45:52;;;;;;;;;;;13.60;99.90;;;;;;4948489;29;19987;-77
2023/10/24 10:48:17;;;;;;;;;;;13.50;99.90;;;;;;4902426;29;20096;-76
2023/10/24 10:50:55;;;;;;;;;;;13.50;99.90;;;;;;4948735;29;19954;-78
2023/10/24 10:53:39;;;;;;;;;;;13.50;99.90;;;;;;4931393;29;19977;-77
2023/10/24 10:56:16;;;;;;;;;;;13.40;99.90;;;;;;4931627;29;19981;-76
2023/10/24 10:59:16;;;;;;;;;;;13.50;99.90;;;;;;4952458;29;19941;-75
2023/10/24 11:01:59;;;;;;;;;;;13.40;99.90;;;;;;4929582;29;19923;-77
2023/10/24 11:04:25;;;;;;;;;;;13.50;99.90;;;;;;4913365;29;19911;-78
2023/10/24 11:06:54;;;;;;;;;;;13.60;99.90;;;;;;4928301;29;19945;-79
2023/10/24 11:09:36;;;;;;;;;;;13.60;99.90;;;;;;4920016;29;19911;-80
2023/10/24 11:15:18;;;;;;;;;;;13.60;99.90;;;;;;4931374;29;19911;-77
2023/10/24 11:21:34;;;;;;;;;;;13.60;99.90;;;;;;4908811;29;19988;-78
2023/10/24 11:24:30;;;;;;;;;;;13.70;99.90;;;;;;4892503;29;20228;-81
2023/10/24 11:26:59;;;;;;;;;;;13.70;99.90;;;;;;4869031;29;19923;-79
2023/10/24 11:29:31;;;;;;;;;;;13.70;99.90;;;;;;4863628;29;19912;-78
2023/10/24 11:31:58;;;;;;;;;;;13.80;99.90;;;;;;4891366;29;19983;-79
2023/10/24 11:34:27;;;;;;;;;;;13.80;99.90;;;;;;4891893;29;19908;-77
2023/10/24 11:36:53;;;;;;;;;;;13.80;99.90;;;;;;4878478;29;19928;-78
2023/10/24 11:39:20;;;;;;;;;;;13.90;99.90;;;;;;4876054;29;20266;-80
2023/10/24 11:41:46;;;;;;;;;;;14.00;99.90;;;;;;4870912;29;20202;-79
2023/10/24 11:44:12;;;;;;;;;;;14.00;99.90;;;;;;4870505;29;19912;-79
2023/10/24 11:46:39;;;;;;;;;;;14.00;99.90;;;;;;4870859;29;20074;-77
2023/10/24 11:55:43;;;;;;;;;;;14.00;99.90;;;;;;4881333;29;20004;-79
2023/10/24 11:58:09;;;;;;;;;;;14.00;99.90;;;;;;4906809;29;19911;-76
2023/10/24 12:00:36;;;;;;;;;;;14.00;99.90;;;;;;4929093;29;19938;-77
2023/10/24 12:03:03;;;;;;;;;;;14.00;99.90;;;;;;4926669;29;19915;-79
2023/10/24 12:05:55;;;;;;;;;;;14.00;99.90;;;;;;4876140;29;19912;-79
2023/10/24 12:08:29;;;;;;;;;;;14.00;99.90;;;;;;4885045;29;19912;-78
2023/10/24 12:11:22;;;;;;;;;;;14.10;99.90;;;;;;4857037;29;19912;-79
2023/10/24 12:13:50;;;;;;;;;;;14.10;99.90;;;;;;4854813;29;20217;-78
2023/10/24 12:16:32;;;;;;;;;;;14.00;99.90;;;;;;4854167;29;19912;-77
2023/10/24 12:18:57;;;;;;;;;;;14.00;99.90;;;;;;4855201;29;19912;-77
2023/10/24 12:21:46;;;;;;;;;;;14.10;99.90;;;;;;4857293;29;19916;-78
2023/10/24 12:24:12;;;;;;;;;;;14.10;99.90;;;;;;4871292;29;19943;-77
2023/10/24 12:26:38;;;;;;;;;;;14.10;99.90;;;;;;4857700;29;19912;-76
2023/10/24 12:29:18;;;;;;;;;;;14.10;99.90;;;;;;4857909;29;20257;-78
2023/10/24 12:31:44;;;;;;;;;;;14.10;99.90;;;;;;4872933;29;19920;-77
2023/10/24 12:34:12;;;;;;;;;;;14.20;99.90;;;;;;4872916;29;19959;-76
2023/10/24 12:36:38;;;;;;;;;;;14.20;99.90;;;;;;4858292;29;19923;-77
2023/10/24 12:39:25;;;;;;;;;;;14.20;99.90;;;;;;4887682;29;19983;-78
2023/10/24 12:41:51;;;;;;;;;;;14.30;99.90;;;;;;4859541;29;19939;-77
2023/10/24 12:44:19;;;;;;;;;;;14.40;99.90;;;;;;4922395;29;19990;-78
2023/10/24 12:46:57;;;;;;;;;;;14.40;99.90;;;;;;4946466;29;19966;-77
2023/10/24 12:49:26;;;;;;;;;;;14.50;99.90;;;;;;4941312;29;20105;-78
2023/10/24 12:51:52;;;;;;;;;;;14.50;99.90;;;;;;4926607;29;19911;-77
2023/10/24 12:54:26;;;;;;;;;;;14.50;99.90;;;;;;4942534;29;19931;-76
2023/10/24 12:56:55;;;;;;;;;;;14.50;99.90;;;;;;4911854;29;20109;-77
2023/10/24 12:59:23;;;;;;;;;;;14.50;99.90;;;;;;4912836;29;19911;-79
2023/10/24 13:01:56;;;;;;;;;;;14.50;99.90;;;;;;4917888;29;19970;-78
2023/10/24 13:04:28;;;;;;;;;;;14.50;99.90;;;;;;4927099;29;19911;-78
2023/10/24 13:06:54;;;;;;;;;;;14.50;99.90;;;;;;4911129;29;19944;-78
2023/10/24 13:09:26;;;;;;;;;;;14.60;99.90;;;;;;4909209;29;20212;-78
2023/10/24 13:12:26;;;;;;;;;;;14.60;99.90;;;;;;4869322;29;19923;-78
2023/10/24 13:14:51;;;;;;;;;;;14.70;99.90;;;;;;4872013;29;20286;-77
2023/10/24 13:17:17;;;;;;;;;;;14.60;99.90;;;;;;4930886;29;19951;-77
2023/10/24 13:19:42;;;;;;;;;;;14.50;99.90;;;;;;4910639;29;19950;-78
2023/10/24 13:22:47;;;;;;;;;;;14.50;99.90;;;;;;4926264;29;20067;-78
2023/10/24 13:25:35;;;;;;;;;;;14.40;99.90;;;;;;4832683;29;19937;-78
2023/10/24 13:28:01;;;;;;;;;;;14.30;99.90;;;;;;4817924;29;19913;-77
2023/10/24 13:30:44;;;;;;;;;;;14.30;99.90;;;;;;4817175;29;19974;-79
2023/10/24 13:33:56;;;;;;;;;;;14.20;99.90;;;;;;4831487;29;19919;-78
2023/10/24 13:36:27;;;;;;;;;;;14.20;99.90;;;;;;4850475;29;20246;-77
2023/10/24 13:39:05;;;;;;;;;;;14.20;99.90;;;;;;4836777;29;19920;-77
2023/10/24 13:42:33;;;;;;;;;;;14.20;99.90;;;;;;4839488;29;19924;-76
2023/10/24 13:45:04;;;;;;;;;;;14.10;99.90;;;;;;4833243;29;19913;-78
2023/10/24 13:47:32;;;;;;;;;;;14.10;99.90;;;;;;4850279;29;19972;-76
2023/10/24 13:50:01;;;;;;;;;;;14.10;99.90;;;;;;4845580;29;19916;-77
2023/10/24 13:52:57;;;;;;;;;;;14.00;99.90;;;;;;4850601;29;20173;-78
2023/10/24 13:55:23;;;;;;;;;;;14.00;99.90;;;;;;4839798;29;19912;-77
2023/10/24 13:57:48;;;;;;;;;;;13.90;99.90;;;;;;4868809;29;19919;-76
2023/10/24 14:00:14;;;;;;;;;;;14.00;99.90;;;;;;4868505;29;19908;-77
2023/10/24 14:02:40;;;;;;;;;;;14.00;99.90;;;;;;4888128;29;19924;-77
2023/10/24 14:05:07;;;;;;;;;;;14.10;99.90;;;;;;4906289;29;22760;-78
2023/10/24 14:07:36;;;;;;;;;;;14.20;99.90;;;;;;4911122;29;19911;-77
2023/10/24 14:10:26;;;;;;;;;;;14.20;99.90;;;;;;4923445;29;19980;-76
2023/10/24 14:12:52;;;;;;;;;;;14.20;99.90;;;;;;4926792;29;19923;-77
2023/10/24 14:15:39;;;;;;;;;;;14.30;99.90;;;;;;4925821;29;19954;-76
2023/10/24 14:18:05;;;;;;;;;;;14.40;99.90;;;;;;4926506;29;19911;-78
2023/10/24 14:20:31;;;;;;;;;;;14.40;99.90;;;;;;4926187;29;19978;-79
2023/10/24 14:23:27;;;;;;;;;;;14.40;99.90;;;;;;4909513;29;19915;-77
2023/10/24 14:25:53;;;;;;;;;;;14.50;99.90;;;;;;4909491;29;20193;-76
2023/10/24 14:28:22;;;;;;;;;;;14.50;99.90;;;;;;4909122;29;19911;-77
2023/10/24 14:30:47;;;;;;;;;;;14.50;99.90;;;;;;4910398;29;19942;-78
2023/10/24 14:33:13;;;;;;;;;;;14.50;99.90;;;;;;4893966;29;20189;-77
2023/10/24 14:35:45;;;;;;;;;;;14.40;99.90;;;;;;4925418;29;19935;-77
2023/10/24 14:38:29;;;;;;;;;;;14.40;99.90;;;;;;4926218;29;19941;-78
2023/10/24 14:44:42;;;;;;;;;;;14.40;99.90;;;;;;4926037;29;19949;-78
2023/10/24 14:47:08;;;;;;;;;;;14.40;99.90;;;;;;4909240;29;19915;-78
2023/10/24 14:54:07;;;;;;;;;;;14.30;99.90;;;;;;4849921;29;19957;-78
2023/10/24 14:56:33;;;;;;;;;;;14.30;99.90;;;;;;4855431;29;20237;-78
2023/10/24 14:59:00;;;;;;;;;;;14.20;99.90;;;;;;4868046;29;19918;-77
2023/10/24 15:01:34;;;;;;;;;;;14.20;99.90;;;;;;4867887;29;20171;-78
2023/10/24 15:04:00;;;;;;;;;;;14.20;99.90;;;;;;4868336;29;20129;-79
2023/10/24 15:06:28;;;;;;;;;;;14.10;99.90;;;;;;4870552;29;19912;-78
2023/10/24 15:08:56;;;;;;;;;;;14.20;99.90;;;;;;4855478;29;20221;-78
2023/10/24 15:11:22;;;;;;;;;;;14.20;99.90;;;;;;4839534;29;19916;-79
2023/10/24 15:17:25;;;;;;;;;;;14.40;99.90;;;;;;4871385;29;19956;-76
2023/10/24 15:19:56;;;;;;;;;;;14.60;99.90;;;;;;4840939;29;20091;-78
2023/10/24 15:22:22;;;;;;;;;;;14.80;99.90;;;;;;4870945;29;19920;-78
2023/10/24 15:24:51;;;;;;;;;;;15.00;99.90;;;;;;4899327;29;19914;-77
2023/10/24 15:27:44;;;;;;;;;;;15.10;99.90;;;;;;4928685;29;19973;-77
2023/10/24 15:30:38;;;;;;;;;;;15.30;99.90;;;;;;4929576;29;19919;-79
2023/10/24 15:33:07;;;;;;;;;;;15.30;99.90;;;;;;4912277;29;19959;-78
2023/10/24 15:43:21;;;;;;;;;;;14.90;99.90;;;;;;4931998;29;19968;-78
2023/10/24 15:49:29;;;;;;;;;;;14.60;99.90;;;;;;4941555;29;19919;-76
2023/10/24 15:52:04;;;;;;;;;;;14.50;99.90;;;;;;4912248;29;19919;-78
2023/10/24 15:54:50;;;;;;;;;;;14.30;99.90;;;;;;4876177;29;19919;-78
2023/10/24 15:57:18;;;;;;;;;;;14.20;99.90;;;;;;4857730;29;19912;-78
2023/10/24 15:59:44;;;;;;;;;;;14.20;99.90;;;;;;4873550;29;19916;-78
2023/10/24 16:02:14;;;;;;;;;;;14.10;99.90;;;;;;4858357;29;19934;-77
2023/10/24 16:07:57;;;;;;;;;;;13.90;99.90;;;;;;4854553;29;19964;-77
2023/10/24 16:10:29;;;;;;;;;;;13.90;99.90;;;;;;4854912;29;20242;-77
2023/10/24 16:12:55;;;;;;;;;;;13.80;99.90;;;;;;4852125;29;19943;-78
2023/10/24 16:15:27;;;;;;;;;;;13.70;99.90;;;;;;4851713;29;19909;-77
2023/10/24 16:21:49;;;;;;;;;;;13.70;99.90;;;;;;4888697;29;19974;-76
2023/10/24 16:25:10;;;;;;;;;;;13.60;99.90;;;;;;4908636;29;19926;-78
2023/10/24 16:28:10;;;;;;;;;;;13.60;99.90;;;;;;4875036;29;19947;-78
2023/10/24 16:31:13;;;;;;;;;;;13.50;99.90;;;;;;4907265;29;19912;-79
2023/10/24 16:34:08;;;;;;;;;;;13.50;99.90;;;;;;4837485;29;19924;-78
2023/10/24 16:37:33;;;;;;;;;;;13.50;99.90;;;;;;4851213;29;19941;-77
2023/10/24 16:39:59;;;;;;;;;;;13.50;99.90;;;;;;4850765;29;19912;-77
2023/10/24 16:42:25;;;;;;;;;;;13.50;99.90;;;;;;4851071;29;19970;-77
2023/10/24 16:44:50;;;;;;;;;;;13.50;99.90;;;;;;4867328;29;20093;-77
2023/10/24 16:47:34;;;;;;;;;;;13.40;99.90;;;;;;4854022;29;20194;-77
2023/10/24 16:50:05;;;;;;;;;;;13.40;99.90;;;;;;4869542;29;19948;-77
2023/10/24 16:52:52;;;;;;;;;;;13.40;99.90;;;;;;4853834;29;19919;-78
2023/10/24 16:55:37;;;;;;;;;;;13.40;99.90;;;;;;4851281;29;19912;-77
2023/10/24 17:01:50;;;;;;;;;;;13.40;99.90;;;;;;4887259;29;19943;-78
2023/10/24 17:07:43;;;;;;;;;;;13.40;99.90;;;;;;4888683;29;20317;-75
2023/10/24 17:10:13;;;;;;;;;;;13.50;99.90;;;;;;4909169;29;19915;-75
2023/10/24 17:12:39;;;;;;;;;;;13.50;99.90;;;;;;4910404;29;19942;-78
2023/10/24 17:15:19;;;;;;;;;;;13.50;99.90;;;;;;4911820;29;20097;-77
2023/10/24 17:18:34;;;;;;;;;;;13.30;99.90;;;;;;4908535;29;20025;-79
2023/10/24 17:21:25;;;;;;;;;;;13.20;99.90;;;;;;4876654;29;20217;-78
2023/10/24 17:23:57;;;;;;;;;;;13.10;99.90;;;;;;4863159;29;19965;-78
2023/10/24 17:30:41;;;;;;;;;;;13.00;99.90;;;;;;4815758;29;19971;-78
2023/10/24 17:34:18;;;;;;;;;;;;;;;;;;;;;
2023/10/24 17:36:55;;;;;;;;;;;12.80;99.90;;;;;;4819436;29;20103;-78
2023/10/24 17:39:33;;;;;;;;;;;12.80;99.90;;;;;;4834446;29;20131;-80
2023/10/24 17:42:24;;;;;;;;;;;12.80;99.90;;;;;;4843904;29;19969;-78
2023/10/24 17:51:07;;;;;;;;;;;12.70;99.90;;;;;;4832725;29;19913;-79
2023/10/24 17:54:02;;;;;;;;;;;12.70;99.90;;;;;;4832175;29;19912;-77
2023/10/24 17:56:52;;;;;;;;;;;12.60;99.90;;;;;;4835200;29;20270;-77
2023/10/24 17:59:18;;;;;;;;;;;12.60;99.90;;;;;;4859208;29;20202;-76
2023/10/24 18:05:44;;;;;;;;;;;12.60;99.90;;;;;;4833150;29;20108;-78
2023/10/24 18:08:13;;;;;;;;;;;12.60;99.90;;;;;;4831881;29;19920;-76
2023/10/24 18:15:11;;;;;;;;;;;;;;;;;;;;;
2023/10/24 18:28:38;;;;;;;;;;;12.60;99.90;;;;;;4798115;29;19920;-76
2023/10/24 18:31:54;;;;;;;;;;;12.60;99.90;;;;;;4764795;30;19919;-77
2023/10/24 18:41:27;;;;;;;;;;;12.60;99.90;;;;;;4682947;30;19927;-75
2023/10/24 18:47:47;;;;;;;;;;;12.60;99.90;;;;;;4696848;30;19922;-76
2023/10/24 18:53:51;;;;;;;;;;;12.60;99.90;;;;;;4692835;30;20000;-76
2023/10/24 19:00:10;;;;;;;;;;;12.60;99.90;;;;;;4733568;30;19964;-77
2023/10/24 19:06:44;;;;;;;;;;;12.70;99.90;;;;;;4751223;30;19960;-75
2023/10/24 19:12:51;;;;;;;;;;;12.60;99.90;;;;;;4820546;29;20225;-75
2023/10/24 19:26:21;;;;;;;;;;;12.50;99.90;;;;;;4826073;29;20247;-77
2023/10/24 19:28:49;;;;;;;;;;;12.40;99.90;;;;;;4823041;29;19935;-75
2023/10/24 19:31:48;;;;;;;;;;;12.50;99.90;;;;;;4819287;29;20039;-77
2023/10/24 19:34:24;;;;;;;;;;;12.40;99.90;;;;;;4793849;30;19949;-76
2023/10/24 19:44:02;;;;;;;;;;;12.40;99.90;;;;;;4812743;29;19987;-78
2023/10/24 19:53:50;;;;;;;;;;;12.40;99.90;;;;;;4812236;29;19936;-77
2023/10/24 19:56:50;;;;;;;;;;;12.30;99.90;;;;;;4795061;29;19956;-78
2023/10/24 20:20:53;;;;;;;;;;;;;;;;;;;;;
2023/10/24 20:33:59;;;;;;;;;;;;;;;;;;;;;
2023/10/24 20:43:35;;;;;;;;;;;12.20;99.90;;;;;;4887451;29;19926;-78
2023/10/24 20:49:56;;;;;;;;;;;12.10;99.90;;;;;;4814102;29;20234;-78
2023/10/24 20:52:31;;;;;;;;;;;12.10;99.90;;;;;;4785630;29;19913;-76
2023/10/24 20:55:22;;;;;;;;;;;12.00;99.90;;;;;;4799221;29;19913;-78
2023/10/24 20:57:54;;;;;;;;;;;11.90;99.90;;;;;;4799308;29;19913;-77
2023/10/24 21:00:50;;;;;;;;;;;11.90;99.90;;;;;;4784392;29;19953;-77
2023/10/24 21:03:16;;;;;;;;;;;11.80;99.90;;;;;;4783951;29;19928;-76
2023/10/24 21:05:48;;;;;;;;;;;11.80;99.90;;;;;;4783973;29;19984;-77
2023/10/24 21:08:32;;;;;;;;;;;11.70;99.90;;;;;;4799326;29;19909;-76
2023/10/24 21:11:22;;;;;;;;;;;11.70;99.90;;;;;;4828212;29;20229;-76
2023/10/24 21:14:11;;;;;;;;;;;11.70;99.90;;;;;;4836991;29;20194;-76
2023/10/24 21:16:46;;;;;;;;;;;11.70;99.90;;;;;;4823566;29;20250;-76
2023/10/24 21:19:36;;;;;;;;;;;11.70;99.90;;;;;;4821757;29;19919;-77
2023/10/24 21:22:16;;;;;;;;;;;11.70;99.90;;;;;;4816185;29;20214;-77
2023/10/24 21:42:26;;;;;;;;;;;11.80;99.90;;;;;;4927012;29;19967;-76
2023/10/24 21:45:04;;;;;;;;;;;11.80;99.90;;;;;;4914087;29;19965;-77
2023/10/24 21:47:29;;;;;;;;;;;11.80;99.90;;;;;;4908549;29;19924;-77
2023/10/24 21:50:35;;;;;;;;;;;;;;;;;;;;;
2023/10/24 22:04:07;;;;;;;;;;;11.90;99.90;;;;;;4943193;29;20241;-76
2023/10/24 22:06:33;;;;;;;;;;;11.90;99.90;;;;;;4926713;29;19919;-78
2023/10/24 22:09:02;;;;;;;;;;;11.90;99.90;;;;;;4929495;29;19915;-77
2023/10/24 22:11:31;;;;;;;;;;;11.90;99.90;;;;;;4929413;28;19996;-76
2023/10/24 22:14:03;;;;;;;;;;;11.90;99.90;;;;;;4943798;29;19918;-76
2023/10/24 22:16:37;;;;;;;;;;;11.90;99.90;;;;;;4945487;29;20112;-77
2023/10/24 22:19:27;;;;;;;;;;;11.90;99.90;;;;;;4944413;29;19918;-77
2023/10/24 22:22:13;;;;;;;;;;;11.90;99.90;;;;;;4905285;29;19919;-77
2023/10/24 22:25:04;;;;;;;;;;;11.90;99.90;;;;;;4905844;29;20017;-77
2023/10/24 22:27:45;;;;;;;;;;;11.90;99.90;;;;;;4905931;29;19947;-77
2023/10/24 22:30:48;;;;;;;;;;;11.90;99.90;;;;;;4913306;28;19955;-75
2023/10/24 22:33:32;;;;;;;;;;;11.90;99.90;;;;;;4905890;29;19912;-76
2023/10/24 22:35:58;;;;;;;;;;;11.90;99.90;;;;;;4904950;29;20205;-76
2023/10/24 22:38:41;;;;;;;;;;;11.80;99.90;;;;;;4905809;29;19979;-77
2023/10/24 22:41:13;;;;;;;;;;;11.80;99.90;;;;;;4903928;29;19967;-77
2023/10/24 22:43:38;;;;;;;;;;;11.80;99.90;;;;;;4905117;29;19977;-77
2023/10/24 22:46:04;;;;;;;;;;;11.80;99.90;;;;;;4889253;29;20206;-76
2023/10/24 22:48:33;;;;;;;;;;;11.80;99.90;;;;;;4904946;29;19911;-77
2023/10/24 22:51:01;;;;;;;;;;;11.80;99.90;;;;;;4904917;29;19990;-77
2023/10/24 22:53:26;;;;;;;;;;;11.80;99.90;;;;;;4905519;29;20253;-77
2023/10/24 22:56:09;;;;;;;;;;;11.80;99.90;;;;;;4904083;29;19911;-76
2023/10/24 22:58:34;;;;;;;;;;;11.80;99.90;;;;;;4909487;29;19918;-77
2023/10/24 23:01:12;;;;;;;;;;;11.80;99.90;;;;;;4924741;29;19911;-76
2023/10/24 23:03:51;;;;;;;;;;;11.70;99.90;;;;;;4925408;29;20261;-77
2023/10/24 23:06:17;;;;;;;;;;;11.70;99.90;;;;;;4925520;29;19942;-77
2023/10/24 23:08:46;;;;;;;;;;;11.60;99.90;;;;;;4925898;29;20093;-77
2023/10/24 23:11:20;;;;;;;;;;;11.60;99.90;;;;;;4926407;29;19914;-77
2023/10/24 23:13:52;;;;;;;;;;;11.50;99.90;;;;;;4913304;29;19917;-77
2023/10/24 23:16:18;;;;;;;;;;;11.40;99.90;;;;;;4925208;29;20189;-77
2023/10/24 23:18:43;;;;;;;;;;;11.30;99.90;;;;;;4909062;29;19978;-76
2023/10/24 23:21:12;;;;;;;;;;;11.10;99.90;;;;;;4924989;29;19954;-76
2023/10/24 23:23:44;;;;;;;;;;;11.10;99.90;;;;;;4924893;29;19943;-77
2023/10/24 23:26:09;;;;;;;;;;;11.00;99.90;;;;;;4926209;29;19918;-77
2023/10/24 23:28:47;;;;;;;;;;;10.80;99.90;;;;;;4928224;29;19911;-77
2023/10/24 23:31:13;;;;;;;;;;;10.80;99.90;;;;;;4912799;29;19969;-76
2023/10/24 23:33:40;;;;;;;;;;;10.80;99.90;;;;;;4932539;29;20194;-77
2023/10/24 23:57:13;;;;;;;;;;;10.50;99.90;;;;;;4928972;29;19919;-76
2023/10/24 23:59:38;;;;;;;;;;;10.50;99.90;;;;;;4911739;29;19911;-76
